SPKBW EPGD-EPGD
Flight info
| Callsign | SPKBW |
|---|---|
| Flight time | 0h 5m |
| Altitude | 1500 |
| Route | DCT |
| Aircraft | C150/L-SCV/C |
Departure
| Time | 2026-05-05 20:01 |
|---|---|
| Airport | Gdańsk Lech Wałęsa Airport (EPGD) |
Arrival
| Time | 2026-05-05 20:06 |
|---|---|
| Airport | Gdańsk Lech Wałęsa Airport (EPGD) |
| Time | Latitude | Longitude | Altitude | Speed | Heading |
|---|---|---|---|---|---|
| 2026-05-05 19:52 | 54.37277 | 18.49490 | 482 ft | 0 kts | 249° |
| 2026-05-05 19:57 | 54.37273 | 18.49472 | 482 ft | 3 kts | 248° |
| 2026-05-05 19:57 | 54.37273 | 18.49408 | 482 ft | 7 kts | 313° |
| 2026-05-05 19:58 | 54.37306 | 18.49345 | 482 ft | 7 kts | 286° |
| 2026-05-05 19:58 | 54.37276 | 18.49299 | 481 ft | 6 kts | 202° |
| 2026-05-05 19:58 | 54.37229 | 18.49264 | 480 ft | 8 kts | 206° |
| 2026-05-05 19:58 | 54.37177 | 18.49196 | 479 ft | 10 kts | 233° |
| 2026-05-05 19:59 | 54.37152 | 18.49076 | 478 ft | 10 kts | 262° |
| 2026-05-05 19:59 | 54.37154 | 18.49053 | 478 ft | 0 kts | 290° |
| 2026-05-05 19:59 | 54.37160 | 18.49026 | 478 ft | 19 kts | 293° |
| 2026-05-05 20:00 | 54.37296 | 18.48474 | 511 ft | 67 kts | 293° |
| 2026-05-05 20:00 | 54.37487 | 18.47678 | 693 ft | 72 kts | 294° |
| 2026-05-05 20:00 | 54.37678 | 18.46859 | 845 ft | 82 kts | 291° |
| 2026-05-05 20:00 | 54.37923 | 18.45902 | 1032 ft | 87 kts | 292° |
| 2026-05-05 20:01 | 54.38127 | 18.44977 | 1134 ft | 77 kts | 296° |
| 2026-05-05 20:01 | 54.38382 | 18.44146 | 1145 ft | 78 kts | 311° |
| 2026-05-05 20:01 | 54.38818 | 18.43737 | 1198 ft | 71 kts | 358° |
| 2026-05-05 20:01 | 54.39287 | 18.43948 | 1188 ft | 69 kts | 28° |
| 2026-05-05 20:02 | 54.39706 | 18.44365 | 1178 ft | 69 kts | 39° |
| 2026-05-05 20:02 | 54.39920 | 18.45078 | 1198 ft | 70 kts | 90° |
| 2026-05-05 20:02 | 54.39777 | 18.45899 | 1190 ft | 75 kts | 107° |
| 2026-05-05 20:02 | 54.39608 | 18.46765 | 1185 ft | 76 kts | 107° |
| 2026-05-05 20:03 | 54.39404 | 18.47633 | 1148 ft | 81 kts | 113° |
| 2026-05-05 20:03 | 54.39154 | 18.48523 | 1102 ft | 80 kts | 113° |
| 2026-05-05 20:03 | 54.38938 | 18.49365 | 1060 ft | 74 kts | 112° |
| 2026-05-05 20:03 | 54.38712 | 18.50172 | 1026 ft | 76 kts | 114° |
| 2026-05-05 20:04 | 54.38486 | 18.51001 | 1057 ft | 76 kts | 110° |
| 2026-05-05 20:04 | 54.38198 | 18.51701 | 1058 ft | 69 kts | 149° |
| 2026-05-05 20:04 | 54.37741 | 18.51736 | 1015 ft | 69 kts | 190° |
| 2026-05-05 20:04 | 54.37253 | 18.51497 | 961 ft | 76 kts | 199° |
| 2026-05-05 20:05 | 54.36826 | 18.51034 | 920 ft | 67 kts | 237° |
| 2026-05-05 20:05 | 54.36849 | 18.50280 | 712 ft | 69 kts | 302° |
| 2026-05-05 20:05 | 54.37030 | 18.49540 | 574 ft | 61 kts | 297° |
| 2026-05-05 20:05 | 54.37197 | 18.48880 | 485 ft | 57 kts | 297° |
| 2026-05-05 20:06 | 54.37325 | 18.48364 | 467 ft | 38 kts | 287° |
| 2026-05-05 20:06 | 54.37417 | 18.47990 | 458 ft | 31 kts | 297° |
| 2026-05-05 20:06 | 54.37496 | 18.47667 | 449 ft | 27 kts | 294° |
| 2026-05-05 20:06 | 54.37567 | 18.47384 | 445 ft | 23 kts | 292° |
| 2026-05-05 20:07 | 54.37631 | 18.47135 | 442 ft | 21 kts | 292° |
| 2026-05-05 20:07 | 54.37698 | 18.46931 | 442 ft | 18 kts | 309° |
| 2026-05-05 20:07 | 54.37785 | 18.46785 | 442 ft | 16 kts | 328° |
| 2026-05-05 20:07 | 54.37874 | 18.46698 | 442 ft | 13 kts | 20° |
| 2026-05-05 20:08 | 54.37882 | 18.46829 | 443 ft | 11 kts | 109° |
| 2026-05-05 20:08 | 54.37853 | 18.46958 | 443 ft | 11 kts | 110° |
| 2026-05-05 20:08 | 54.37825 | 18.47079 | 444 ft | 9 kts | 116° |
| 2026-05-05 20:08 | 54.37801 | 18.47173 | 445 ft | 7 kts | 109° |
| 2026-05-05 20:09 | 54.37785 | 18.47252 | 446 ft | 6 kts | 112° |